sensor_id;sensor_type;location;lat;lon;timestamp;pressure;altitude;pressure_sealevel;temperature;humidity
30618;BME280;17384;51.214;9.202;2023-02-19T00:00:53;98720.88;;;8.29;85.23
30618;BME280;17384;51.214;9.202;2023-02-19T00:03:19;98722.53;;;8.30;85.30
30618;BME280;17384;51.214;9.202;2023-02-19T00:05:44;98719.41;;;8.26;85.62
30618;BME280;17384;51.214;9.202;2023-02-19T00:08:10;98726.25;;;8.22;85.88
30618;BME280;17384;51.214;9.202;2023-02-19T00:10:35;98731.84;;;8.21;86.07
30618;BME280;17384;51.214;9.202;2023-02-19T00:13:01;98742.66;;;8.14;86.02
30618;BME280;17384;51.214;9.202;2023-02-19T00:15:26;98742.88;;;8.19;86.13
30618;BME280;17384;51.214;9.202;2023-02-19T00:17:52;98736.25;;;8.28;85.77
30618;BME280;17384;51.214;9.202;2023-02-19T00:20:18;98730.84;;;8.28;85.73
30618;BME280;17384;51.214;9.202;2023-02-19T00:22:44;98731.03;;;8.27;85.90
30618;BME280;17384;51.214;9.202;2023-02-19T00:25:09;98736.25;;;8.28;85.96
30618;BME280;17384;51.214;9.202;2023-02-19T00:27:35;98721.06;;;8.27;85.75
30618;BME280;17384;51.214;9.202;2023-02-19T00:30:00;98713.38;;;8.31;85.55
30618;BME280;17384;51.214;9.202;2023-02-19T00:32:25;98722.16;;;8.33;85.63
30618;BME280;17384;51.214;9.202;2023-02-19T00:34:51;98706.31;;;8.30;86.01
30618;BME280;17384;51.214;9.202;2023-02-19T00:37:16;98711.34;;;8.33;86.02
30618;BME280;17384;51.214;9.202;2023-02-19T00:39:42;98697.84;;;8.33;85.94
30618;BME280;17384;51.214;9.202;2023-02-19T00:42:07;98689.72;;;8.33;85.75
30618;BME280;17384;51.214;9.202;2023-02-19T00:44:33;98695.31;;;8.31;85.88
30618;BME280;17384;51.214;9.202;2023-02-19T00:46:58;98693.63;;;8.30;85.73
30618;BME280;17384;51.214;9.202;2023-02-19T00:49:23;98691.75;;;8.31;85.88
30618;BME280;17384;51.214;9.202;2023-02-19T00:51:51;98694.94;;;8.34;85.70
30618;BME280;17384;51.214;9.202;2023-02-19T00:54:16;98680.78;;;8.32;85.39
30618;BME280;17384;51.214;9.202;2023-02-19T00:56:42;98673.06;;;8.29;85.44
30618;BME280;17384;51.214;9.202;2023-02-19T00:59:08;98679.69;;;8.27;85.45
30618;BME280;17384;51.214;9.202;2023-02-19T01:01:34;98686.13;;;8.26;85.55
30618;BME280;17384;51.214;9.202;2023-02-19T01:03:59;98687.59;;;8.28;85.56
30618;BME280;17384;51.214;9.202;2023-02-19T01:06:25;98676.38;;;8.31;85.37
30618;BME280;17384;51.214;9.202;2023-02-19T01:08:50;98683.28;;;8.34;85.15
30618;BME280;17384;51.214;9.202;2023-02-19T01:11:16;98687.06;;;8.39;84.98
30618;BME280;17384;51.214;9.202;2023-02-19T01:13:42;98680.59;;;8.40;84.89
30618;BME280;17384;51.214;9.202;2023-02-19T01:16:11;98680.59;;;8.40;84.86
30618;BME280;17384;51.214;9.202;2023-02-19T01:18:37;98684.16;;;8.41;84.60
30618;BME280;17384;51.214;9.202;2023-02-19T01:21:07;98680.59;;;8.40;84.86
30618;BME280;17384;51.214;9.202;2023-02-19T01:23:34;98670.63;;;8.41;85.08
30618;BME280;17384;51.214;9.202;2023-02-19T01:26:06;98670.63;;;8.41;85.12
30618;BME280;17384;51.214;9.202;2023-02-19T01:28:31;98677.06;;;8.40;84.94
30618;BME280;17384;51.214;9.202;2023-02-19T01:31:04;98663.56;;;8.40;85.25
30618;BME280;17384;51.214;9.202;2023-02-19T01:33:30;98651.91;;;8.39;85.70
30618;BME280;17384;51.214;9.202;2023-02-19T01:35:56;98664.78;;;8.37;85.55
30618;BME280;17384;51.214;9.202;2023-02-19T01:38:22;98657.72;;;8.36;85.89
30618;BME280;17384;51.214;9.202;2023-02-19T01:40:59;98642.28;;;8.30;85.79
30618;BME280;17384;51.214;9.202;2023-02-19T01:43:24;98660.63;;;8.35;86.04
30618;BME280;17384;51.214;9.202;2023-02-19T01:45:50;98652.53;;;8.35;85.78
30618;BME280;17384;51.214;9.202;2023-02-19T01:48:33;98648.72;;;8.29;85.90
30618;BME280;17384;51.214;9.202;2023-02-19T01:51:10;98646.28;;;8.34;85.98
30618;BME280;17384;51.214;9.202;2023-02-19T01:53:44;98637.34;;;8.40;85.57
30618;BME280;17384;51.214;9.202;2023-02-19T01:56:10;98646.50;;;8.39;85.44
30618;BME280;17384;51.214;9.202;2023-02-19T01:58:38;98631.94;;;8.40;85.38
30618;BME280;17384;51.214;9.202;2023-02-19T02:01:06;98630.91;;;8.35;85.30
30618;BME280;17384;51.214;9.202;2023-02-19T02:03:34;98631.34;;;8.45;84.64
30618;BME280;17384;51.214;9.202;2023-02-19T02:06:05;98631.53;;;8.50;84.19
30618;BME280;17384;51.214;9.202;2023-02-19T02:08:32;98628.41;;;8.53;84.33
30618;BME280;17384;51.214;9.202;2023-02-19T02:11:18;98625.09;;;8.38;84.93
30618;BME280;17384;51.214;9.202;2023-02-19T02:13:44;98631.97;;;8.47;84.06
30618;BME280;17384;51.214;9.202;2023-02-19T02:22:23;98626.53;;;8.40;84.47
30618;BME280;17384;51.214;9.202;2023-02-19T02:30:36;98617.81;;;8.52;83.62
30618;BME280;17384;51.214;9.202;2023-02-19T02:36:06;98605.31;;;8.51;84.02
30618;BME280;17384;51.214;9.202;2023-02-19T02:38:35;98596.38;;;8.50;83.72
30618;BME280;17384;51.214;9.202;2023-02-19T02:41:03;98596.16;;;8.52;83.61
30618;BME280;17384;51.214;9.202;2023-02-19T02:43:29;98597.03;;;8.45;83.96
30618;BME280;17384;51.214;9.202;2023-02-19T02:45:55;98598.88;;;8.38;84.20
30618;BME280;17384;51.214;9.202;2023-02-19T02:56:30;98600.78;;;8.64;82.85
30618;BME280;17384;51.214;9.202;2023-02-19T02:58:58;98580.81;;;8.45;83.60
30618;BME280;17384;51.214;9.202;2023-02-19T03:05:00;98582.03;;;8.49;83.08
30618;BME280;17384;51.214;9.202;2023-02-19T03:07:59;98581.19;;;8.49;82.91
30618;BME280;17384;51.214;9.202;2023-02-19T03:10:49;98575.38;;;8.39;83.40
30618;BME280;17384;51.214;9.202;2023-02-19T03:13:27;98564.34;;;8.54;82.37
30618;BME280;17384;51.214;9.202;2023-02-19T03:16:26;98570.34;;;8.29;83.25
30618;BME280;17384;51.214;9.202;2023-02-19T03:19:14;98582.03;;;8.36;82.96
30618;BME280;17384;51.214;9.202;2023-02-19T03:22:07;98583.69;;;8.51;82.25
30618;BME280;17384;51.214;9.202;2023-02-19T03:24:40;98587.88;;;8.40;82.72
30618;BME280;17384;51.214;9.202;2023-02-19T03:27:28;98581.44;;;8.47;82.31
30618;BME280;17384;51.214;9.202;2023-02-19T03:29:57;98582.47;;;8.46;82.62
30618;BME280;17384;51.214;9.202;2023-02-19T03:32:45;98588.47;;;8.55;81.96
30618;BME280;17384;51.214;9.202;2023-02-19T03:35:17;98583.91;;;8.49;82.17
30618;BME280;17384;51.214;9.202;2023-02-19T03:37:56;98585.16;;;8.60;81.70
30618;BME280;17384;51.214;9.202;2023-02-19T03:40:28;98587.44;;;8.49;82.22
30618;BME280;17384;51.214;9.202;2023-02-19T03:46:24;98577.47;;;8.43;83.12
30618;BME280;17384;51.214;9.202;2023-02-19T03:48:54;98579.78;;;8.46;83.33
30618;BME280;17384;51.214;9.202;2023-02-19T03:51:30;98577.47;;;8.37;84.08
30618;BME280;17384;51.214;9.202;2023-02-19T03:56:35;98584.28;;;8.20;85.26
30618;BME280;17384;51.214;9.202;2023-02-19T03:59:13;98590.50;;;8.27;84.85
30618;BME280;17384;51.214;9.202;2023-02-19T04:01:46;98575.16;;;8.34;84.61
30618;BME280;17384;51.214;9.202;2023-02-19T04:07:24;98596.31;;;8.24;85.21
30618;BME280;17384;51.214;9.202;2023-02-19T04:09:52;98614.00;;;8.20;85.75
30618;BME280;17384;51.214;9.202;2023-02-19T04:12:19;98616.91;;;8.11;86.33
30618;BME280;17384;51.214;9.202;2023-02-19T04:14:52;98611.22;;;7.93;87.63
30618;BME280;17384;51.214;9.202;2023-02-19T04:17:38;98624.25;;;7.76;89.02
30618;BME280;17384;51.214;9.202;2023-02-19T04:20:07;98624.63;;;7.67;89.65
30618;BME280;17384;51.214;9.202;2023-02-19T04:22:35;98630.03;;;7.67;89.94
30618;BME280;17384;51.214;9.202;2023-02-19T04:25:02;98636.25;;;7.61;90.29
30618;BME280;17384;51.214;9.202;2023-02-19T04:27:27;98653.28;;;7.61;90.42
30618;BME280;17384;51.214;9.202;2023-02-19T04:29:53;98656.19;;;7.60;90.55
30618;BME280;17384;51.214;9.202;2023-02-19T04:32:19;98656.19;;;7.60;90.46
30618;BME280;17384;51.214;9.202;2023-02-19T04:34:44;98652.25;;;7.62;90.50
30618;BME280;17384;51.214;9.202;2023-02-19T04:37:10;98653.72;;;7.71;90.09
30618;BME280;17384;51.214;9.202;2023-02-19T04:39:36;98653.72;;;7.71;89.97
30618;BME280;17384;51.214;9.202;2023-02-19T04:42:02;98659.56;;;7.75;89.74
30618;BME280;17384;51.214;9.202;2023-02-19T04:44:27;98666.19;;;7.72;89.39
30618;BME280;17384;51.214;9.202;2023-02-19T04:46:53;98670.31;;;7.68;89.58
30618;BME280;17384;51.214;9.202;2023-02-19T04:49:18;98656.66;;;7.76;88.95
30618;BME280;17384;51.214;9.202;2023-02-19T04:51:44;98684.69;;;7.75;89.10
30618;BME280;17384;51.214;9.202;2023-02-19T04:54:09;98676.19;;;7.78;87.64
30618;BME280;17384;51.214;9.202;2023-02-19T04:56:35;98679.50;;;7.74;87.52
30618;BME280;17384;51.214;9.202;2023-02-19T04:59:00;98686.97;;;7.72;87.16
30618;BME280;17384;51.214;9.202;2023-02-19T05:01:26;98677.44;;;7.76;86.46
30618;BME280;17384;51.214;9.202;2023-02-19T05:03:51;98672.44;;;7.73;86.09
30618;BME280;17384;51.214;9.202;2023-02-19T05:06:17;98682.19;;;7.74;85.88
30618;BME280;17384;51.214;9.202;2023-02-19T05:08:43;98679.69;;;7.72;85.49
30618;BME280;17384;51.214;9.202;2023-02-19T05:11:10;98686.31;;;7.70;85.84
30618;BME280;17384;51.214;9.202;2023-02-19T05:13:35;98675.31;;;7.65;86.29
30618;BME280;17384;51.214;9.202;2023-02-19T05:16:04;98692.13;;;7.67;85.85
30618;BME280;17384;51.214;9.202;2023-02-19T05:18:31;98691.06;;;7.61;85.82
30618;BME280;17384;51.214;9.202;2023-02-19T05:20:58;98690.19;;;7.54;86.21
30618;BME280;17384;51.214;9.202;2023-02-19T05:23:24;98695.59;;;7.54;86.03
30618;BME280;17384;51.214;9.202;2023-02-19T05:25:49;98703.06;;;7.52;86.19
30618;BME280;17384;51.214;9.202;2023-02-19T05:28:15;98707.81;;;7.50;86.41
30618;BME280;17384;51.214;9.202;2023-02-19T05:30:48;98717.38;;;7.53;86.47
30618;BME280;17384;51.214;9.202;2023-02-19T05:33:15;98733.13;;;7.49;86.86
30618;BME280;17384;51.214;9.202;2023-02-19T05:36:06;98716.31;;;7.47;87.42
30618;BME280;17384;51.214;9.202;2023-02-19T05:38:33;98719.78;;;7.41;87.36
30618;BME280;17384;51.214;9.202;2023-02-19T05:41:09;98719.56;;;7.36;87.99
30618;BME280;17384;51.214;9.202;2023-02-19T05:43:36;98724.34;;;7.40;87.92
30618;BME280;17384;51.214;9.202;2023-02-19T05:46:01;98733.09;;;7.42;87.17
30618;BME280;17384;51.214;9.202;2023-02-19T05:48:27;98730.06;;;7.52;86.78
30618;BME280;17384;51.214;9.202;2023-02-19T05:50:52;98742.03;;;7.43;86.43
30618;BME280;17384;51.214;9.202;2023-02-19T05:53:18;98749.28;;;7.42;86.59
30618;BME280;17384;51.214;9.202;2023-02-19T05:55:43;98745.94;;;7.40;86.37
30618;BME280;17384;51.214;9.202;2023-02-19T05:58:09;98757.78;;;7.39;86.29
30618;BME280;17384;51.214;9.202;2023-02-19T06:00:34;98758.22;;;7.43;86.19
30618;BME280;17384;51.214;9.202;2023-02-19T06:03:00;98755.06;;;7.39;85.13
30618;BME280;17384;51.214;9.202;2023-02-19T06:05:25;98748.25;;;7.43;85.26
30618;BME280;17384;51.214;9.202;2023-02-19T06:07:51;98759.25;;;7.42;84.67
30618;BME280;17384;51.214;9.202;2023-02-19T06:10:17;98758.19;;;7.36;84.99
30618;BME280;17384;51.214;9.202;2023-02-19T06:12:43;98768.56;;;7.39;84.93
30618;BME280;17384;51.214;9.202;2023-02-19T06:15:08;98766.47;;;7.35;84.76
30618;BME280;17384;51.214;9.202;2023-02-19T06:17:34;98772.53;;;7.37;84.83
30618;BME280;17384;51.214;9.202;2023-02-19T06:20:00;98782.28;;;7.38;84.75
30618;BME280;17384;51.214;9.202;2023-02-19T06:22:26;98778.34;;;7.40;84.67
30618;BME280;17384;51.214;9.202;2023-02-19T06:24:52;98792.00;;;7.32;84.94
30618;BME280;17384;51.214;9.202;2023-02-19T06:27:17;98788.47;;;7.32;85.57
30618;BME280;17384;51.214;9.202;2023-02-19T06:29:43;98797.84;;;7.36;85.20
30618;BME280;17384;51.214;9.202;2023-02-19T06:32:09;98800.53;;;7.36;85.26
30618;BME280;17384;51.214;9.202;2023-02-19T06:34:35;98784.34;;;7.36;85.26
30618;BME280;17384;51.214;9.202;2023-02-19T06:37:01;98793.66;;;7.33;85.37
30618;BME280;17384;51.214;9.202;2023-02-19T06:39:27;98809.28;;;7.38;85.70
30618;BME280;17384;51.214;9.202;2023-02-19T06:41:56;98804.06;;;7.36;86.01
30618;BME280;17384;51.214;9.202;2023-02-19T06:44:23;98810.50;;;7.35;85.48
30618;BME280;17384;51.214;9.202;2023-02-19T06:46:49;98816.94;;;7.41;85.49
30618;BME280;17384;51.214;9.202;2023-02-19T06:49:15;98818.41;;;7.37;85.85
30618;BME280;17384;51.214;9.202;2023-02-19T06:51:40;98820.25;;;7.36;85.12
30618;BME280;17384;51.214;9.202;2023-02-19T06:54:06;98825.34;;;7.25;85.82
30618;BME280;17384;51.214;9.202;2023-02-19T06:56:35;98830.34;;;7.28;84.44
30618;BME280;17384;51.214;9.202;2023-02-19T06:59:04;98833.88;;;7.28;84.82
30618;BME280;17384;51.214;9.202;2023-02-19T07:01:31;98834.91;;;7.27;84.79
30618;BME280;17384;51.214;9.202;2023-02-19T07:03:57;98832.84;;;7.29;84.76
30618;BME280;17384;51.214;9.202;2023-02-19T07:06:24;98835.94;;;7.26;84.96
30618;BME280;17384;51.214;9.202;2023-02-19T07:08:50;98844.88;;;7.27;85.10
30618;BME280;17384;51.214;9.202;2023-02-19T07:11:17;98851.94;;;7.28;85.39
30618;BME280;17384;51.214;9.202;2023-02-19T07:13:43;98846.66;;;7.20;85.52
30618;BME280;17384;51.214;9.202;2023-02-19T07:16:09;98850.25;;;7.27;85.54
30618;BME280;17384;51.214;9.202;2023-02-19T07:18:35;98846.53;;;7.28;85.66
30618;BME280;17384;51.214;9.202;2023-02-19T07:21:09;98859.00;;;7.29;85.79
30618;BME280;17384;51.214;9.202;2023-02-19T07:23:35;98874.03;;;7.38;85.77
30618;BME280;17384;51.214;9.202;2023-02-19T07:26:01;98874.66;;;7.40;85.77
30618;BME280;17384;51.214;9.202;2023-02-19T07:28:27;98876.97;;;7.43;86.33
30618;BME280;17384;51.214;9.202;2023-02-19T07:30:53;98890.25;;;7.38;86.53
30618;BME280;17384;51.214;9.202;2023-02-19T07:33:19;98891.38;;;7.29;86.69
30618;BME280;17384;51.214;9.202;2023-02-19T07:35:45;98886.44;;;7.32;86.51
30618;BME280;17384;51.214;9.202;2023-02-19T07:38:11;98898.19;;;7.25;86.51
30618;BME280;17384;51.214;9.202;2023-02-19T07:40:36;98893.81;;;7.24;85.91
30618;BME280;17384;51.214;9.202;2023-02-19T07:43:02;98910.66;;;7.26;85.73
30618;BME280;17384;51.214;9.202;2023-02-19T07:45:28;98916.97;;;7.33;85.91
30618;BME280;17384;51.214;9.202;2023-02-19T07:47:53;98922.09;;;7.28;86.17
30618;BME280;17384;51.214;9.202;2023-02-19T07:50:19;98927.88;;;7.25;86.50
30618;BME280;17384;51.214;9.202;2023-02-19T07:52:44;98925.94;;;7.19;86.87
30618;BME280;17384;51.214;9.202;2023-02-19T07:55:10;98917.75;;;7.12;86.57
30618;BME280;17384;51.214;9.202;2023-02-19T07:57:35;98937.03;;;7.09;86.27
30618;BME280;17384;51.214;9.202;2023-02-19T08:00:01;98938.44;;;7.05;86.73
30618;BME280;17384;51.214;9.202;2023-02-19T08:02:26;98942.16;;;7.04;86.72
30618;BME280;17384;51.214;9.202;2023-02-19T08:05:10;98947.00;;;7.08;87.06
30618;BME280;17384;51.214;9.202;2023-02-19T08:07:36;98954.97;;;7.17;86.99
30618;BME280;17384;51.214;9.202;2023-02-19T08:10:03;98961.56;;;7.14;87.10
30618;BME280;17384;51.214;9.202;2023-02-19T08:12:58;98962.22;;;7.16;87.25
30618;BME280;17384;51.214;9.202;2023-02-19T08:15:43;98962.53;;;7.06;88.09
30618;BME280;17384;51.214;9.202;2023-02-19T08:18:09;98959.19;;;7.04;88.35
30618;BME280;17384;51.214;9.202;2023-02-19T08:20:35;98962.59;;;7.13;88.26
30618;BME280;17384;51.214;9.202;2023-02-19T08:23:00;98966.03;;;7.22;88.39
30618;BME280;17384;51.214;9.202;2023-02-19T08:25:26;98969.44;;;7.30;88.16
30618;BME280;17384;51.214;9.202;2023-02-19T08:27:52;98977.09;;;7.27;88.19
30618;BME280;17384;51.214;9.202;2023-02-19T08:30:18;98978.56;;;7.29;88.24
30618;BME280;17384;51.214;9.202;2023-02-19T08:32:43;98974.38;;;7.27;88.57
30618;BME280;17384;51.214;9.202;2023-02-19T08:35:09;98984.63;;;7.31;88.32
30618;BME280;17384;51.214;9.202;2023-02-19T08:37:34;98977.28;;;7.46;88.81
30618;BME280;17384;51.214;9.202;2023-02-19T08:40:00;98982.78;;;7.53;88.91
30618;BME280;17384;51.214;9.202;2023-02-19T08:42:27;98994.22;;;7.55;88.36
30618;BME280;17384;51.214;9.202;2023-02-19T08:44:52;98995.72;;;7.43;88.52
30618;BME280;17384;51.214;9.202;2023-02-19T08:47:18;98992.47;;;7.47;88.64
30618;BME280;17384;51.214;9.202;2023-02-19T08:49:43;98992.53;;;7.54;88.42
30618;BME280;17384;51.214;9.202;2023-02-19T08:52:09;99007.44;;;7.50;88.67
30618;BME280;17384;51.214;9.202;2023-02-19T08:54:35;99007.06;;;7.53;88.68
30618;BME280;17384;51.214;9.202;2023-02-19T08:57:00;99013.75;;;7.57;88.52
30618;BME280;17384;51.214;9.202;2023-02-19T08:59:27;99021.22;;;7.55;88.43
30618;BME280;17384;51.214;9.202;2023-02-19T09:01:53;99008.44;;;7.64;88.01
30618;BME280;17384;51.214;9.202;2023-02-19T09:04:18;99012.88;;;7.71;87.93
30618;BME280;17384;51.214;9.202;2023-02-19T09:06:44;99029.06;;;7.71;87.59
30618;BME280;17384;51.214;9.202;2023-02-19T09:09:09;99031.25;;;7.61;86.48
30618;BME280;17384;51.214;9.202;2023-02-19T09:11:38;99027.25;;;7.57;86.34
30618;BME280;17384;51.214;9.202;2023-02-19T09:14:03;99032.75;;;7.64;86.34
30618;BME280;17384;51.214;9.202;2023-02-19T09:16:32;99026.75;;;7.68;85.84
30618;BME280;17384;51.214;9.202;2023-02-19T09:18:58;99039.22;;;7.69;85.95
30618;BME280;17384;51.214;9.202;2023-02-19T09:21:23;99042.06;;;7.82;85.58
30618;BME280;17384;51.214;9.202;2023-02-19T09:23:49;99033.97;;;7.82;85.42
30618;BME280;17384;51.214;9.202;2023-02-19T09:26:14;99040.22;;;7.83;85.28
30618;BME280;17384;51.214;9.202;2023-02-19T09:28:40;99038.53;;;7.82;85.38
30618;BME280;17384;51.214;9.202;2023-02-19T09:31:13;99048.38;;;7.90;85.67
30618;BME280;17384;51.214;9.202;2023-02-19T09:33:43;99046.91;;;7.87;85.20
30618;BME280;17384;51.214;9.202;2023-02-19T09:36:09;99062.84;;;7.82;85.13
30618;BME280;17384;51.214;9.202;2023-02-19T09:38:35;99065.16;;;7.85;85.18
30618;BME280;17384;51.214;9.202;2023-02-19T09:41:06;99070.56;;;7.85;85.00
30618;BME280;17384;51.214;9.202;2023-02-19T09:43:32;99063.69;;;7.82;84.95
30618;BME280;17384;51.214;9.202;2023-02-19T09:49:02;99065.03;;;7.93;85.33
30618;BME280;17384;51.214;9.202;2023-02-19T09:51:32;99081.22;;;7.93;84.25
30618;BME280;17384;51.214;9.202;2023-02-19T09:54:00;99081.69;;;7.97;85.28
30618;BME280;17384;51.214;9.202;2023-02-19T09:56:28;99078.22;;;8.03;84.25
30618;BME280;17384;51.214;9.202;2023-02-19T09:58:55;99084.75;;;7.94;84.89
30618;BME280;17384;51.214;9.202;2023-02-19T10:01:26;99089.97;;;7.95;85.28
30618;BME280;17384;51.214;9.202;2023-02-19T10:03:52;99096.03;;;7.97;85.32
30618;BME280;17384;51.214;9.202;2023-02-19T10:06:21;99100.03;;;8.01;84.99
30618;BME280;17384;51.214;9.202;2023-02-19T10:08:50;99091.78;;;7.88;85.36
30618;BME280;17384;51.214;9.202;2023-02-19T10:11:16;99098.78;;;7.82;85.58
30618;BME280;17384;51.214;9.202;2023-02-19T10:16:30;99139.94;;;7.34;85.17
30618;BME280;17384;51.214;9.202;2023-02-19T10:18:56;99145.81;;;7.37;85.47
30618;BME280;17384;51.214;9.202;2023-02-19T10:21:26;99151.56;;;7.34;85.23
30618;BME280;17384;51.214;9.202;2023-02-19T10:23:58;99158.91;;;7.11;86.11
30618;BME280;17384;51.214;9.202;2023-02-19T10:26:25;99152.19;;;7.22;85.29
30618;BME280;17384;51.214;9.202;2023-02-19T10:28:51;99155.56;;;7.24;85.51
30618;BME280;17384;51.214;9.202;2023-02-19T10:31:24;99173.41;;;7.10;85.84
30618;BME280;17384;51.214;9.202;2023-02-19T10:33:55;99178.59;;;7.11;85.62
30618;BME280;17384;51.214;9.202;2023-02-19T10:36:30;99182.59;;;7.01;85.63
30618;BME280;17384;51.214;9.202;2023-02-19T10:38:57;99178.41;;;6.98;85.67
30618;BME280;17384;51.214;9.202;2023-02-19T10:41:24;99179.97;;;6.93;86.03
30618;BME280;17384;51.214;9.202;2023-02-19T10:44:04;99198.16;;;6.76;86.13
30618;BME280;17384;51.214;9.202;2023-02-19T10:46:39;99208.97;;;6.76;86.44
30618;BME280;17384;51.214;9.202;2023-02-19T10:52:12;99220.09;;;6.73;86.78
30618;BME280;17384;51.214;9.202;2023-02-19T10:54:48;99214.00;;;6.79;86.09
30618;BME280;17384;51.214;9.202;2023-02-19T10:59:54;99219.81;;;6.68;86.28
30618;BME280;17384;51.214;9.202;2023-02-19T11:02:23;99217.09;;;6.68;86.52
30618;BME280;17384;51.214;9.202;2023-02-19T11:05:18;99241.38;;;6.68;86.10
30618;BME280;17384;51.214;9.202;2023-02-19T11:07:56;99236.81;;;6.68;85.84
30618;BME280;17384;51.214;9.202;2023-02-19T11:10:37;99259.16;;;6.77;85.58
30618;BME280;17384;51.214;9.202;2023-02-19T11:13:05;99262.75;;;6.92;85.81
30618;BME280;17384;51.214;9.202;2023-02-19T11:15:37;99251.09;;;6.77;86.09
30618;BME280;17384;51.214;9.202;2023-02-19T11:21:01;99249.97;;;7.09;84.78
30618;BME280;17384;51.214;9.202;2023-02-19T11:23:33;99253.69;;;7.08;83.78
30618;BME280;17384;51.214;9.202;2023-02-19T11:26:00;99261.31;;;7.04;83.46
30618;BME280;17384;51.214;9.202;2023-02-19T11:28:35;99246.88;;;6.97;83.62
30618;BME280;17384;51.214;9.202;2023-02-19T11:31:22;99236.56;;;7.01;84.10
30618;BME280;17384;51.214;9.202;2023-02-19T11:36:31;99251.59;;;6.95;84.42
30618;BME280;17384;51.214;9.202;2023-02-19T11:39:01;99256.34;;;6.93;84.34
30618;BME280;17384;51.214;9.202;2023-02-19T12:00:54;99283.78;;;6.74;84.75
30618;BME280;17384;51.214;9.202;2023-02-19T12:03:27;99288.97;;;6.84;84.95
30618;BME280;17384;51.214;9.202;2023-02-19T12:06:31;99274.03;;;6.73;84.97
30618;BME280;17384;51.214;9.202;2023-02-19T12:34:11;99261.78;;;7.08;82.94
30618;BME280;17384;51.214;9.202;2023-02-19T12:37:00;99265.03;;;7.03;82.79
30618;BME280;17384;51.214;9.202;2023-02-19T12:44:54;99260.78;;;7.24;82.72
30618;BME280;17384;51.214;9.202;2023-02-19T12:47:24;99275.06;;;7.32;83.13
30618;BME280;17384;51.214;9.202;2023-02-19T12:50:02;99280.03;;;7.21;83.48
30618;BME280;17384;51.214;9.202;2023-02-19T12:52:36;99272.06;;;7.27;84.07
30618;BME280;17384;51.214;9.202;2023-02-19T12:55:20;99275.13;;;7.24;83.40
30618;BME280;17384;51.214;9.202;2023-02-19T12:57:46;99278.06;;;7.37;82.89
30618;BME280;17384;51.214;9.202;2023-02-19T13:03:06;99277.75;;;7.47;83.58
30618;BME280;17384;51.214;9.202;2023-02-19T13:08:30;99293.84;;;7.93;81.36
30618;BME280;17384;51.214;9.202;2023-02-19T13:11:03;99290.63;;;7.74;80.60
30618;BME280;17384;51.214;9.202;2023-02-19T13:13:35;99304.53;;;7.86;80.61
30618;BME280;17384;51.214;9.202;2023-02-19T13:16:08;99312.97;;;7.68;82.04
30618;BME280;17384;51.214;9.202;2023-02-19T13:18:59;99319.03;;;7.56;82.00
30618;BME280;17384;51.214;9.202;2023-02-19T13:21:29;99316.50;;;7.54;82.31
30618;BME280;17384;51.214;9.202;2023-02-19T13:24:20;99328.63;;;7.58;83.39
30618;BME280;17384;51.214;9.202;2023-02-19T13:26:50;99329.09;;;7.62;83.24
30618;BME280;17384;51.214;9.202;2023-02-19T13:32:16;99322.03;;;7.75;83.43
30618;BME280;17384;51.214;9.202;2023-02-19T13:37:49;99329.28;;;7.60;81.96
30618;BME280;17384;51.214;9.202;2023-02-19T13:40:31;99340.34;;;7.51;82.55
30618;BME280;17384;51.214;9.202;2023-02-19T13:43:00;99333.88;;;7.37;83.35
30618;BME280;17384;51.214;9.202;2023-02-19T13:45:38;99337.59;;;7.36;82.55
30618;BME280;17384;51.214;9.202;2023-02-19T13:50:50;99323.34;;;7.04;83.53
30618;BME280;17384;51.214;9.202;2023-02-19T14:04:21;99359.00;;;7.14;84.15
30618;BME280;17384;51.214;9.202;2023-02-19T14:14:54;99330.31;;;6.99;84.29
30618;BME280;17384;51.214;9.202;2023-02-19T14:20:48;99337.19;;;7.24;84.20
30618;BME280;17384;51.214;9.202;2023-02-19T14:22:58;99355.22;;;7.46;83.48
30618;BME280;17384;51.214;9.202;2023-02-19T14:25:47;99356.25;;;7.23;83.69
30618;BME280;17384;51.214;9.202;2023-02-19T14:28:26;99354.22;;;7.25;83.57
30618;BME280;17384;51.214;9.202;2023-02-19T14:33:33;99358.41;;;7.27;83.14
30618;BME280;17384;51.214;9.202;2023-02-19T14:36:18;99367.72;;;7.02;83.71
30618;BME280;17384;51.214;9.202;2023-02-19T14:38:51;99366.69;;;7.03;83.88
30618;BME280;17384;51.214;9.202;2023-02-19T14:41:18;99362.53;;;6.92;84.35
30618;BME280;17384;51.214;9.202;2023-02-19T14:43:48;99368.38;;;7.04;84.52
30618;BME280;17384;51.214;9.202;2023-02-19T14:46:34;99363.91;;;6.88;84.61
30618;BME280;17384;51.214;9.202;2023-02-19T14:49:16;99372.66;;;6.90;84.38
30618;BME280;17384;51.214;9.202;2023-02-19T14:51:47;99374.22;;;6.85;84.79
30618;BME280;17384;51.214;9.202;2023-02-19T14:54:26;99376.13;;;6.76;84.87
30618;BME280;17384;51.214;9.202;2023-02-19T14:56:56;99377.53;;;6.64;85.14
30618;BME280;17384;51.214;9.202;2023-02-19T14:59:27;99382.09;;;6.63;85.87
30618;BME280;17384;51.214;9.202;2023-02-19T15:02:12;99385.31;;;6.59;85.89
30618;BME280;17384;51.214;9.202;2023-02-19T15:04:38;99373.25;;;6.47;86.06
30618;BME280;17384;51.214;9.202;2023-02-19T15:07:10;99377.31;;;6.42;86.08
30618;BME280;17384;51.214;9.202;2023-02-19T15:09:47;99390.16;;;6.63;85.47
30618;BME280;17384;51.214;9.202;2023-02-19T15:12:24;99394.38;;;6.66;85.00
30618;BME280;17384;51.214;9.202;2023-02-19T15:14:54;99380.91;;;6.66;85.21
30618;BME280;17384;51.214;9.202;2023-02-19T15:17:25;99380.75;;;6.59;85.51
30618;BME280;17384;51.214;9.202;2023-02-19T15:19:52;99382.25;;;6.62;85.94
30618;BME280;17384;51.214;9.202;2023-02-19T15:22:23;99380.69;;;6.75;85.23
30618;BME280;17384;51.214;9.202;2023-02-19T15:24:49;99390.78;;;6.42;85.49
30618;BME280;17384;51.214;9.202;2023-02-19T15:27:20;99386.44;;;6.33;85.56
30618;BME280;17384;51.214;9.202;2023-02-19T15:29:49;99374.97;;;6.31;85.73
30618;BME280;17384;51.214;9.202;2023-02-19T15:32:20;99370.09;;;6.35;85.82
30618;BME280;17384;51.214;9.202;2023-02-19T15:35:04;99370.59;;;6.30;85.78
30618;BME280;17384;51.214;9.202;2023-02-19T15:37:32;99376.72;;;6.24;85.91
30618;BME280;17384;51.214;9.202;2023-02-19T15:40:04;99363.34;;;6.31;87.05
30618;BME280;17384;51.214;9.202;2023-02-19T15:42:33;99363.19;;;6.32;87.01
30618;BME280;17384;51.214;9.202;2023-02-19T15:45:16;99355.41;;;6.45;86.93